sensor_id;sensor_type;location;lat;lon;timestamp;pressure;altitude;pressure_sealevel;temperature;humidity
70437;BME280;57877;39.750;-104.894;2023-02-17T00:01:24;84025.23;;;-1.48;19.72
70437;BME280;57877;39.750;-104.894;2023-02-17T00:03:46;84024.62;;;-1.82;20.03
70437;BME280;57877;39.750;-104.894;2023-02-17T00:06:11;84025.65;;;-1.96;20.15
70437;BME280;57877;39.750;-104.894;2023-02-17T00:08:37;84025.19;;;-1.94;19.41
70437;BME280;57877;39.750;-104.894;2023-02-17T00:11:01;84025.68;;;-2.67;20.04
70437;BME280;57877;39.750;-104.894;2023-02-17T00:13:26;84025.11;;;-2.80;20.78
70437;BME280;57877;39.750;-104.894;2023-02-17T00:15:51;84029.96;;;-2.58;20.10
70437;BME280;57877;39.750;-104.894;2023-02-17T00:18:16;84031.57;;;-2.86;20.20
70437;BME280;57877;39.750;-104.894;2023-02-17T00:20:42;84032.30;;;-2.58;19.92
70437;BME280;57877;39.750;-104.894;2023-02-17T00:23:07;84031.24;;;-2.75;20.38
70437;BME280;57877;39.750;-104.894;2023-02-17T00:25:32;84030.62;;;-2.88;20.02
70437;BME280;57877;39.750;-104.894;2023-02-17T00:27:57;84030.06;;;-2.81;21.99
70437;BME280;57877;39.750;-104.894;2023-02-17T00:30:23;84032.16;;;-2.73;20.03
70437;BME280;57877;39.750;-104.894;2023-02-17T00:32:48;84030.59;;;-2.61;21.22
70437;BME280;57877;39.750;-104.894;2023-02-17T00:35:13;84029.92;;;-2.88;20.83
70437;BME280;57877;39.750;-104.894;2023-02-17T00:37:38;84031.89;;;-2.98;21.45
70437;BME280;57877;39.750;-104.894;2023-02-17T00:40:03;84035.13;;;-2.91;22.34
70437;BME280;57877;39.750;-104.894;2023-02-17T00:42:28;84038.89;;;-3.19;21.60
70437;BME280;57877;39.750;-104.894;2023-02-17T00:44:53;84040.16;;;-3.19;22.52
70437;BME280;57877;39.750;-104.894;2023-02-17T00:47:18;84042.25;;;-3.37;22.40
70437;BME280;57877;39.750;-104.894;2023-02-17T00:49:44;84042.46;;;-3.11;22.77
70437;BME280;57877;39.750;-104.894;2023-02-17T00:52:09;84045.69;;;-2.64;22.67
70437;BME280;57877;39.750;-104.894;2023-02-17T00:54:34;84046.44;;;-2.98;24.31
70437;BME280;57877;39.750;-104.894;2023-02-17T00:56:59;84049.33;;;-2.94;22.31
70437;BME280;57877;39.750;-104.894;2023-02-17T00:59:24;84054.56;;;-3.02;23.44
70437;BME280;57877;39.750;-104.894;2023-02-17T01:01:50;84055.81;;;-2.97;24.61
70437;BME280;57877;39.750;-104.894;2023-02-17T01:04:15;84055.24;;;-2.88;22.47
70437;BME280;57877;39.750;-104.894;2023-02-17T01:06:40;84057.56;;;-3.39;21.43
70437;BME280;57877;39.750;-104.894;2023-02-17T01:09:07;84056.42;;;-3.14;21.99
70437;BME280;57877;39.750;-104.894;2023-02-17T01:11:32;84060.97;;;-3.17;22.03
70437;BME280;57877;39.750;-104.894;2023-02-17T01:13:56;84065.41;;;-3.29;22.01
70437;BME280;57877;39.750;-104.894;2023-02-17T01:16:23;84068.45;;;-3.05;21.96
70437;BME280;57877;39.750;-104.894;2023-02-17T01:18:46;84069.98;;;-3.17;21.27
70437;BME280;57877;39.750;-104.894;2023-02-17T01:21:16;84072.76;;;-3.01;21.77
70437;BME280;57877;39.750;-104.894;2023-02-17T01:23:37;84072.93;;;-3.61;21.97
70437;BME280;57877;39.750;-104.894;2023-02-17T01:26:01;84075.27;;;-3.33;22.69
70437;BME280;57877;39.750;-104.894;2023-02-17T01:28:27;84072.59;;;-3.52;21.56
70437;BME280;57877;39.750;-104.894;2023-02-17T01:30:52;84072.16;;;-3.48;22.36
70437;BME280;57877;39.750;-104.894;2023-02-17T01:38:08;84073.37;;;-3.86;22.29
70437;BME280;57877;39.750;-104.894;2023-02-17T01:45:31;84076.17;;;-3.84;23.53
70437;BME280;57877;39.750;-104.894;2023-02-17T01:52:39;84075.78;;;-3.94;24.41
70437;BME280;57877;39.750;-104.894;2023-02-17T01:59:55;84074.57;;;-4.24;23.32
70437;BME280;57877;39.750;-104.894;2023-02-17T02:04:45;84070.35;;;-4.62;23.00
70437;BME280;57877;39.750;-104.894;2023-02-17T02:07:15;84071.54;;;-4.52;23.39
70437;BME280;57877;39.750;-104.894;2023-02-17T02:12:01;84072.90;;;-4.98;22.85
70437;BME280;57877;39.750;-104.894;2023-02-17T02:14:26;84072.40;;;-4.92;23.68
70437;BME280;57877;39.750;-104.894;2023-02-17T02:16:58;84075.05;;;-5.54;23.48
70437;BME280;57877;39.750;-104.894;2023-02-17T02:24:15;84079.05;;;-5.91;24.47
70437;BME280;57877;39.750;-104.894;2023-02-17T02:29:11;84082.42;;;-5.54;24.81
70437;BME280;57877;39.750;-104.894;2023-02-17T02:31:31;84083.45;;;-5.72;25.18
70437;BME280;57877;39.750;-104.894;2023-02-17T02:33:50;84085.08;;;-5.45;24.78
70437;BME280;57877;39.750;-104.894;2023-02-17T02:36:18;84085.18;;;-6.32;25.63
70437;BME280;57877;39.750;-104.894;2023-02-17T02:38:41;84086.68;;;-5.77;24.97
70437;BME280;57877;39.750;-104.894;2023-02-17T02:41:06;84084.93;;;-5.93;25.06
70437;BME280;57877;39.750;-104.894;2023-02-17T02:43:29;84084.76;;;-5.82;25.45
70437;BME280;57877;39.750;-104.894;2023-02-17T02:45:53;84085.95;;;-5.87;25.39
70437;BME280;57877;39.750;-104.894;2023-02-17T02:48:19;84085.04;;;-6.07;25.29
70437;BME280;57877;39.750;-104.894;2023-02-17T02:50:56;84085.56;;;-5.72;25.12
70437;BME280;57877;39.750;-104.894;2023-02-17T02:53:23;84085.83;;;-5.72;25.49
70437;BME280;57877;39.750;-104.894;2023-02-17T02:55:45;84084.59;;;-5.93;25.95
70437;BME280;57877;39.750;-104.894;2023-02-17T02:58:04;84090.25;;;-6.48;26.42
70437;BME280;57877;39.750;-104.894;2023-02-17T03:00:32;84090.97;;;-6.24;26.26
70437;BME280;57877;39.750;-104.894;2023-02-17T03:02:54;84092.94;;;-6.60;26.72
70437;BME280;57877;39.750;-104.894;2023-02-17T03:05:23;84091.59;;;-6.84;26.29
70437;BME280;57877;39.750;-104.894;2023-02-17T03:07:46;84090.30;;;-8.02;27.95
70437;BME280;57877;39.750;-104.894;2023-02-17T03:10:07;84088.38;;;-6.92;26.86
70437;BME280;57877;39.750;-104.894;2023-02-17T03:12:31;84087.32;;;-7.54;26.91
70437;BME280;57877;39.750;-104.894;2023-02-17T03:15:00;84087.65;;;-7.27;27.24
70437;BME280;57877;39.750;-104.894;2023-02-17T03:17:21;84085.75;;;-7.45;27.93
70437;BME280;57877;39.750;-104.894;2023-02-17T03:19:47;84086.55;;;-7.85;27.91
70437;BME280;57877;39.750;-104.894;2023-02-17T03:22:16;84087.71;;;-7.20;27.09
70437;BME280;57877;39.750;-104.894;2023-02-17T03:24:37;84090.16;;;-7.28;27.58
70437;BME280;57877;39.750;-104.894;2023-02-17T03:27:02;84092.12;;;-7.76;27.91
70437;BME280;57877;39.750;-104.894;2023-02-17T03:29:27;84091.10;;;-7.45;27.75
70437;BME280;57877;39.750;-104.894;2023-02-17T03:31:53;84090.52;;;-8.26;28.66
70437;BME280;57877;39.750;-104.894;2023-02-17T03:34:18;84089.61;;;-7.50;28.10
70437;BME280;57877;39.750;-104.894;2023-02-17T03:36:43;84090.93;;;-7.46;28.27
70437;BME280;57877;39.750;-104.894;2023-02-17T03:39:08;84091.71;;;-7.90;29.58
70437;BME280;57877;39.750;-104.894;2023-02-17T03:41:34;84093.82;;;-7.98;29.09
70437;BME280;57877;39.750;-104.894;2023-02-17T03:43:59;84097.82;;;-8.32;29.70
70437;BME280;57877;39.750;-104.894;2023-02-17T03:46:24;84098.65;;;-7.55;29.34
70437;BME280;57877;39.750;-104.894;2023-02-17T03:48:49;84097.57;;;-7.54;28.47
70437;BME280;57877;39.750;-104.894;2023-02-17T03:51:17;84099.74;;;-7.78;28.72
70437;BME280;57877;39.750;-104.894;2023-02-17T03:53:40;84098.99;;;-7.95;29.06
70437;BME280;57877;39.750;-104.894;2023-02-17T03:56:06;84099.58;;;-7.62;29.34
70437;BME280;57877;39.750;-104.894;2023-02-17T03:58:30;84100.45;;;-7.79;29.82
70437;BME280;57877;39.750;-104.894;2023-02-17T04:00:56;84099.26;;;-7.55;29.17
70437;BME280;57877;39.750;-104.894;2023-02-17T04:03:21;84099.41;;;-8.11;30.01
70437;BME280;57877;39.750;-104.894;2023-02-17T04:05:46;84102.56;;;-7.67;29.09
70437;BME280;57877;39.750;-104.894;2023-02-17T04:08:11;84100.95;;;-7.47;29.10
70437;BME280;57877;39.750;-104.894;2023-02-17T04:10:37;84104.58;;;-7.29;29.64
70437;BME280;57877;39.750;-104.894;2023-02-17T04:13:02;84109.93;;;-6.86;29.54
70437;BME280;57877;39.750;-104.894;2023-02-17T04:15:27;84105.31;;;-7.35;29.31
70437;BME280;57877;39.750;-104.894;2023-02-17T04:17:53;84105.33;;;-7.57;29.38
70437;BME280;57877;39.750;-104.894;2023-02-17T04:20:18;84104.72;;;-7.27;29.18
70437;BME280;57877;39.750;-104.894;2023-02-17T04:22:43;84102.07;;;-7.05;29.66
70437;BME280;57877;39.750;-104.894;2023-02-17T04:25:08;84100.91;;;-7.27;29.70
70437;BME280;57877;39.750;-104.894;2023-02-17T04:27:33;84101.92;;;-7.35;29.50
70437;BME280;57877;39.750;-104.894;2023-02-17T04:29:58;84099.63;;;-6.97;29.54
70437;BME280;57877;39.750;-104.894;2023-02-17T04:32:24;84098.23;;;-7.29;29.92
70437;BME280;57877;39.750;-104.894;2023-02-17T04:34:49;84099.17;;;-7.29;30.20
70437;BME280;57877;39.750;-104.894;2023-02-17T04:37:14;84102.17;;;-8.06;30.46
70437;BME280;57877;39.750;-104.894;2023-02-17T04:39:39;84101.55;;;-8.35;31.58
70437;BME280;57877;39.750;-104.894;2023-02-17T04:42:05;84103.38;;;-8.20;31.45
70437;BME280;57877;39.750;-104.894;2023-02-17T04:44:30;84102.93;;;-7.79;31.01
70437;BME280;57877;39.750;-104.894;2023-02-17T04:46:55;84105.00;;;-7.74;30.97
70437;BME280;57877;39.750;-104.894;2023-02-17T04:49:21;84103.92;;;-7.30;30.99
70437;BME280;57877;39.750;-104.894;2023-02-17T04:51:46;84100.15;;;-7.92;31.51
70437;BME280;57877;39.750;-104.894;2023-02-17T04:54:11;84095.42;;;-8.16;32.09
70437;BME280;57877;39.750;-104.894;2023-02-17T04:56:36;84093.37;;;-7.92;31.74
70437;BME280;57877;39.750;-104.894;2023-02-17T04:59:01;84094.07;;;-7.90;31.82
70437;BME280;57877;39.750;-104.894;2023-02-17T05:01:27;84095.50;;;-8.06;32.40
70437;BME280;57877;39.750;-104.894;2023-02-17T05:03:52;84100.34;;;-8.20;32.46
70437;BME280;57877;39.750;-104.894;2023-02-17T05:06:17;84101.50;;;-8.44;33.32
70437;BME280;57877;39.750;-104.894;2023-02-17T05:08:43;84110.66;;;-7.64;32.20
70437;BME280;57877;39.750;-104.894;2023-02-17T05:11:08;84112.20;;;-7.65;32.38
70437;BME280;57877;39.750;-104.894;2023-02-17T05:13:33;84107.17;;;-7.78;32.38
70437;BME280;57877;39.750;-104.894;2023-02-17T05:15:58;84105.57;;;-7.81;32.61
70437;BME280;57877;39.750;-104.894;2023-02-17T05:18:23;84104.38;;;-7.89;32.70
70437;BME280;57877;39.750;-104.894;2023-02-17T05:20:49;84107.90;;;-8.13;32.77
70437;BME280;57877;39.750;-104.894;2023-02-17T05:23:14;84106.63;;;-8.09;33.37
70437;BME280;57877;39.750;-104.894;2023-02-17T05:25:39;84106.79;;;-7.64;33.47
70437;BME280;57877;39.750;-104.894;2023-02-17T05:28:04;84105.61;;;-8.25;33.43
70437;BME280;57877;39.750;-104.894;2023-02-17T05:30:30;84104.73;;;-8.07;34.07
70437;BME280;57877;39.750;-104.894;2023-02-17T05:32:55;84103.77;;;-8.37;34.30
70437;BME280;57877;39.750;-104.894;2023-02-17T05:35:20;84101.17;;;-7.98;33.96
70437;BME280;57877;39.750;-104.894;2023-02-17T05:37:45;84101.33;;;-7.84;33.74
70437;BME280;57877;39.750;-104.894;2023-02-17T05:40:11;84099.43;;;-7.83;33.75
70437;BME280;57877;39.750;-104.894;2023-02-17T05:42:36;84096.29;;;-8.28;34.12
70437;BME280;57877;39.750;-104.894;2023-02-17T05:45:01;84094.25;;;-8.05;34.47
70437;BME280;57877;39.750;-104.894;2023-02-17T05:47:26;84092.62;;;-8.16;34.60
70437;BME280;57877;39.750;-104.894;2023-02-17T05:49:52;84088.38;;;-8.34;34.61
70437;BME280;57877;39.750;-104.894;2023-02-17T05:52:17;84086.16;;;-7.91;34.29
70437;BME280;57877;39.750;-104.894;2023-02-17T05:54:42;84086.98;;;-8.07;35.12
70437;BME280;57877;39.750;-104.894;2023-02-17T05:57:07;84089.82;;;-8.72;35.48
70437;BME280;57877;39.750;-104.894;2023-02-17T05:59:33;84085.32;;;-8.16;35.23
70437;BME280;57877;39.750;-104.894;2023-02-17T06:01:58;84085.90;;;-8.21;35.13
70437;BME280;57877;39.750;-104.894;2023-02-17T06:04:28;84085.66;;;-8.01;35.18
70437;BME280;57877;39.750;-104.894;2023-02-17T06:06:49;84084.20;;;-8.20;35.36
70437;BME280;57877;39.750;-104.894;2023-02-17T06:09:14;84079.63;;;-8.09;35.23
70437;BME280;57877;39.750;-104.894;2023-02-17T06:11:39;84079.35;;;-8.71;35.57
70437;BME280;57877;39.750;-104.894;2023-02-17T06:14:04;84078.91;;;-8.22;35.11
70437;BME280;57877;39.750;-104.894;2023-02-17T06:16:29;84078.99;;;-7.94;35.11
70437;BME280;57877;39.750;-104.894;2023-02-17T06:18:55;84077.01;;;-7.88;34.77
70437;BME280;57877;39.750;-104.894;2023-02-17T06:21:20;84079.21;;;-8.19;34.97
70437;BME280;57877;39.750;-104.894;2023-02-17T06:23:45;84074.18;;;-7.96;34.74
70437;BME280;57877;39.750;-104.894;2023-02-17T06:26:10;84076.32;;;-8.22;34.48
70437;BME280;57877;39.750;-104.894;2023-02-17T06:28:35;84076.30;;;-8.43;34.50
70437;BME280;57877;39.750;-104.894;2023-02-17T06:31:00;84077.03;;;-8.09;34.29
70437;BME280;57877;39.750;-104.894;2023-02-17T06:33:26;84078.39;;;-7.95;33.82
70437;BME280;57877;39.750;-104.894;2023-02-17T06:35:51;84078.34;;;-8.02;34.00
70437;BME280;57877;39.750;-104.894;2023-02-17T06:38:17;84078.07;;;-8.29;34.42
70437;BME280;57877;39.750;-104.894;2023-02-17T06:40:41;84079.24;;;-8.05;34.34
70437;BME280;57877;39.750;-104.894;2023-02-17T06:43:07;84075.12;;;-7.69;33.66
70437;BME280;57877;39.750;-104.894;2023-02-17T06:45:32;84076.44;;;-8.02;33.93
70437;BME280;57877;39.750;-104.894;2023-02-17T06:47:57;84074.85;;;-8.34;34.33
70437;BME280;57877;39.750;-104.894;2023-02-17T06:50:22;84073.72;;;-7.96;34.05
70437;BME280;57877;39.750;-104.894;2023-02-17T06:52:47;84072.90;;;-8.80;34.77
70437;BME280;57877;39.750;-104.894;2023-02-17T06:55:13;84074.95;;;-8.22;34.11
70437;BME280;57877;39.750;-104.894;2023-02-17T06:57:38;84075.97;;;-8.21;33.93
70437;BME280;57877;39.750;-104.894;2023-02-17T07:00:05;84076.73;;;-7.98;33.41
70437;BME280;57877;39.750;-104.894;2023-02-17T07:02:28;84080.73;;;-7.99;33.41
70437;BME280;57877;39.750;-104.894;2023-02-17T07:04:54;84077.91;;;-8.01;33.57
70437;BME280;57877;39.750;-104.894;2023-02-17T07:07:19;84074.13;;;-7.77;33.00
70437;BME280;57877;39.750;-104.894;2023-02-17T07:09:44;84074.28;;;-7.90;33.11
70437;BME280;57877;39.750;-104.894;2023-02-17T07:12:09;84076.09;;;-7.39;32.36
70437;BME280;57877;39.750;-104.894;2023-02-17T07:14:35;84075.07;;;-7.82;32.62
70437;BME280;57877;39.750;-104.894;2023-02-17T07:17:00;84074.84;;;-7.43;32.43
70437;BME280;57877;39.750;-104.894;2023-02-17T07:19:25;84075.15;;;-7.97;32.72
70437;BME280;57877;39.750;-104.894;2023-02-17T07:21:50;84076.33;;;-7.54;32.16
70437;BME280;57877;39.750;-104.894;2023-02-17T07:24:16;84076.41;;;-8.36;32.92
70437;BME280;57877;39.750;-104.894;2023-02-17T07:26:41;84076.59;;;-8.33;32.40
70437;BME280;57877;39.750;-104.894;2023-02-17T07:29:07;84073.67;;;-7.46;32.60
70437;BME280;57877;39.750;-104.894;2023-02-17T07:31:32;84077.80;;;-8.09;32.81
70437;BME280;57877;39.750;-104.894;2023-02-17T07:33:57;84074.07;;;-7.73;32.66
70437;BME280;57877;39.750;-104.894;2023-02-17T07:36:22;84082.43;;;-8.07;32.58
70437;BME280;57877;39.750;-104.894;2023-02-17T07:38:48;84081.03;;;-7.90;32.49
70437;BME280;57877;39.750;-104.894;2023-02-17T07:41:14;84075.94;;;-8.18;32.44
70437;BME280;57877;39.750;-104.894;2023-02-17T07:43:38;84074.21;;;-7.68;32.48
70437;BME280;57877;39.750;-104.894;2023-02-17T07:46:04;84071.94;;;-7.92;32.10
70437;BME280;57877;39.750;-104.894;2023-02-17T07:48:29;84073.59;;;-7.79;32.72
70437;BME280;57877;39.750;-104.894;2023-02-17T07:50:54;84070.73;;;-8.21;33.17
70437;BME280;57877;39.750;-104.894;2023-02-17T07:53:19;84072.04;;;-7.58;32.35
70437;BME280;57877;39.750;-104.894;2023-02-17T07:55:44;84077.36;;;-7.76;32.03
70437;BME280;57877;39.750;-104.894;2023-02-17T07:58:10;84080.80;;;-7.35;32.10
70437;BME280;57877;39.750;-104.894;2023-02-17T08:00:35;84079.59;;;-8.09;32.04
70437;BME280;57877;39.750;-104.894;2023-02-17T08:03:00;84079.97;;;-7.67;32.64
70437;BME280;57877;39.750;-104.894;2023-02-17T08:05:25;84081.69;;;-7.71;32.37
70437;BME280;57877;39.750;-104.894;2023-02-17T08:07:51;84079.45;;;-7.86;32.57
70437;BME280;57877;39.750;-104.894;2023-02-17T08:10:16;84079.84;;;-7.89;32.67
70437;BME280;57877;39.750;-104.894;2023-02-17T08:12:41;84077.70;;;-8.19;32.76
70437;BME280;57877;39.750;-104.894;2023-02-17T08:15:08;84074.25;;;-8.28;33.26
70437;BME280;57877;39.750;-104.894;2023-02-17T08:17:31;84071.22;;;-8.03;32.32
70437;BME280;57877;39.750;-104.894;2023-02-17T08:19:57;84067.06;;;-8.20;32.70
70437;BME280;57877;39.750;-104.894;2023-02-17T08:22:22;84069.29;;;-8.20;32.40
70437;BME280;57877;39.750;-104.894;2023-02-17T08:24:47;84068.13;;;-7.71;31.84
70437;BME280;57877;39.750;-104.894;2023-02-17T08:27:13;84068.05;;;-8.12;32.39
70437;BME280;57877;39.750;-104.894;2023-02-17T08:29:38;84067.84;;;-8.20;32.04
70437;BME280;57877;39.750;-104.894;2023-02-17T08:32:03;84067.32;;;-7.96;32.01
70437;BME280;57877;39.750;-104.894;2023-02-17T08:34:28;84066.20;;;-8.16;32.61
70437;BME280;57877;39.750;-104.894;2023-02-17T08:36:53;84065.93;;;-7.68;31.65
70437;BME280;57877;39.750;-104.894;2023-02-17T08:39:19;84063.72;;;-8.20;31.78
70437;BME280;57877;39.750;-104.894;2023-02-17T08:41:45;84060.51;;;-7.93;31.29
70437;BME280;57877;39.750;-104.894;2023-02-17T08:44:11;84062.01;;;-7.85;31.34
70437;BME280;57877;39.750;-104.894;2023-02-17T08:46:35;84063.61;;;-7.35;30.85
70437;BME280;57877;39.750;-104.894;2023-02-17T08:49:00;84065.36;;;-7.45;31.47
70437;BME280;57877;39.750;-104.894;2023-02-17T08:51:25;84066.78;;;-7.13;30.28
70437;BME280;57877;39.750;-104.894;2023-02-17T08:53:52;84063.18;;;-7.13;30.50
70437;BME280;57877;39.750;-104.894;2023-02-17T08:56:16;84061.70;;;-6.93;30.22
70437;BME280;57877;39.750;-104.894;2023-02-17T08:58:41;84060.98;;;-7.04;30.37
70437;BME280;57877;39.750;-104.894;2023-02-17T09:01:06;84059.33;;;-7.13;30.78
70437;BME280;57877;39.750;-104.894;2023-02-17T09:03:33;84055.51;;;-7.14;30.60
70437;BME280;57877;39.750;-104.894;2023-02-17T09:05:56;84058.35;;;-7.10;30.66
70437;BME280;57877;39.750;-104.894;2023-02-17T09:08:22;84059.43;;;-6.75;30.15
70437;BME280;57877;39.750;-104.894;2023-02-17T09:10:47;84059.12;;;-7.36;30.38
70437;BME280;57877;39.750;-104.894;2023-02-17T09:13:12;84056.54;;;-7.47;30.37
70437;BME280;57877;39.750;-104.894;2023-02-17T09:15:37;84052.88;;;-7.08;30.30
70437;BME280;57877;39.750;-104.894;2023-02-17T09:18:03;84049.90;;;-7.80;31.23
70437;BME280;57877;39.750;-104.894;2023-02-17T09:20:28;84050.69;;;-7.83;31.28
70437;BME280;57877;39.750;-104.894;2023-02-17T09:22:54;84050.73;;;-7.59;31.07
70437;BME280;57877;39.750;-104.894;2023-02-17T09:25:18;84052.47;;;-7.66;30.73
70437;BME280;57877;39.750;-104.894;2023-02-17T09:27:43;84048.84;;;-7.95;31.26
70437;BME280;57877;39.750;-104.894;2023-02-17T09:30:10;84051.77;;;-7.66;30.74
70437;BME280;57877;39.750;-104.894;2023-02-17T09:32:34;84053.07;;;-7.66;30.85
70437;BME280;57877;39.750;-104.894;2023-02-17T09:34:59;84050.25;;;-7.73;30.99
70437;BME280;57877;39.750;-104.894;2023-02-17T09:37:24;84045.09;;;-7.61;31.18
70437;BME280;57877;39.750;-104.894;2023-02-17T09:39:50;84047.74;;;-7.98;31.92
70437;BME280;57877;39.750;-104.894;2023-02-17T09:42:18;84049.58;;;-8.00;31.73
70437;BME280;57877;39.750;-104.894;2023-02-17T09:44:42;84042.98;;;-8.00;31.81
70437;BME280;57877;39.750;-104.894;2023-02-17T09:47:09;84041.91;;;-7.89;31.93
70437;BME280;57877;39.750;-104.894;2023-02-17T09:49:36;84041.33;;;-7.93;31.98
70437;BME280;57877;39.750;-104.894;2023-02-17T09:52:00;84038.41;;;-8.11;31.85
70437;BME280;57877;39.750;-104.894;2023-02-17T09:54:26;84040.84;;;-7.56;31.67
70437;BME280;57877;39.750;-104.894;2023-02-17T09:56:48;84043.43;;;-7.74;31.24
70437;BME280;57877;39.750;-104.894;2023-02-17T09:59:15;84046.36;;;-7.45;30.98
70437;BME280;57877;39.750;-104.894;2023-02-17T10:01:37;84038.41;;;-7.69;31.37
70437;BME280;57877;39.750;-104.894;2023-02-17T10:04:07;84040.55;;;-8.42;32.20
70437;BME280;57877;39.750;-104.894;2023-02-17T10:06:30;84039.78;;;-7.64;31.10
70437;BME280;57877;39.750;-104.894;2023-02-17T10:08:56;84040.32;;;-7.54;30.61
70437;BME280;57877;39.750;-104.894;2023-02-17T10:11:24;84044.84;;;-7.40;30.30
70437;BME280;57877;39.750;-104.894;2023-02-17T10:13:44;84049.52;;;-7.48;30.65
70437;BME280;57877;39.750;-104.894;2023-02-17T10:16:10;84046.16;;;-7.40;30.49
70437;BME280;57877;39.750;-104.894;2023-02-17T10:18:38;84043.21;;;-7.27;30.26
70437;BME280;57877;39.750;-104.894;2023-02-17T10:21:02;84039.47;;;-7.82;31.20
70437;BME280;57877;39.750;-104.894;2023-02-17T10:23:26;84043.85;;;-7.32;30.32
70437;BME280;57877;39.750;-104.894;2023-02-17T10:25:59;84043.14;;;-7.19;29.86
70437;BME280;57877;39.750;-104.894;2023-02-17T10:28:21;84047.86;;;-7.18;30.38
70437;BME280;57877;39.750;-104.894;2023-02-17T10:30:45;84047.97;;;-7.08;29.94
70437;BME280;57877;39.750;-104.894;2023-02-17T10:33:11;84045.58;;;-7.59;30.47
70437;BME280;57877;39.750;-104.894;2023-02-17T10:35:43;84044.65;;;-7.30;30.32
70437;BME280;57877;39.750;-104.894;2023-02-17T10:37:59;84039.06;;;-7.46;30.60
70437;BME280;57877;39.750;-104.894;2023-02-17T10:40:23;84038.56;;;-7.27;30.09
70437;BME280;57877;39.750;-104.894;2023-02-17T10:42:46;84034.77;;;-7.13;29.89
70437;BME280;57877;39.750;-104.894;2023-02-17T10:45:17;84032.98;;;-6.92;29.79
70437;BME280;57877;39.750;-104.894;2023-02-17T10:47:37;84030.13;;;-7.03;30.35
70437;BME280;57877;39.750;-104.894;2023-02-17T10:50:03;84031.93;;;-7.42;30.14
70437;BME280;57877;39.750;-104.894;2023-02-17T10:52:34;84039.00;;;-7.12;30.28
70437;BME280;57877;39.750;-104.894;2023-02-17T10:54:55;84042.02;;;-7.49;30.30
70437;BME280;57877;39.750;-104.894;2023-02-17T10:57:19;84038.67;;;-7.64;30.59
70437;BME280;57877;39.750;-104.894;2023-02-17T10:59:44;84035.37;;;-6.94;29.91
70437;BME280;57877;39.750;-104.894;2023-02-17T11:02:14;84035.85;;;-7.25;30.33
70437;BME280;57877;39.750;-104.894;2023-02-17T11:04:39;84030.68;;;-7.06;30.19
70437;BME280;57877;39.750;-104.894;2023-02-17T11:07:00;84028.29;;;-6.92;29.65
70437;BME280;57877;39.750;-104.894;2023-02-17T11:09:26;84025.25;;;-6.70;29.79
70437;BME280;57877;39.750;-104.894;2023-02-17T11:11:53;84022.31;;;-6.88;29.58
70437;BME280;57877;39.750;-104.894;2023-02-17T11:14:19;84019.68;;;-7.03;29.64
70437;BME280;57877;39.750;-104.894;2023-02-17T11:16:42;84024.00;;;-7.22;29.76
70437;BME280;57877;39.750;-104.894;2023-02-17T11:19:05;84024.06;;;-6.96;29.56
70437;BME280;57877;39.750;-104.894;2023-02-17T11:21:30;84027.58;;;-7.30;29.86
70437;BME280;57877;39.750;-104.894;2023-02-17T11:23:58;84033.42;;;-6.89;29.34
70437;BME280;57877;39.750;-104.894;2023-02-17T11:26:23;84033.94;;;-7.03;28.82
70437;BME280;57877;39.750;-104.894;2023-02-17T11:28:45;84035.55;;;-6.31;28.46
70437;BME280;57877;39.750;-104.894;2023-02-17T11:33:38;84034.87;;;-6.79;29.10
70437;BME280;57877;39.750;-104.894;2023-02-17T11:36:02;84033.95;;;-6.67;29.08
70437;BME280;57877;39.750;-104.894;2023-02-17T11:38:28;84031.86;;;-6.89;29.43
70437;BME280;57877;39.750;-104.894;2023-02-17T11:40:54;84026.58;;;-7.09;29.44
70437;BME280;57877;39.750;-104.894;2023-02-17T11:43:17;84025.83;;;-7.25;29.54
70437;BME280;57877;39.750;-104.894;2023-02-17T11:45:48;84027.64;;;-7.16;29.86
70437;BME280;57877;39.750;-104.894;2023-02-17T11:50:36;84025.80;;;-6.90;29.85
70437;BME280;57877;39.750;-104.894;2023-02-17T11:53:07;84025.17;;;-6.82;29.62
70437;BME280;57877;39.750;-104.894;2023-02-17T11:55:28;84024.51;;;-6.49;29.58
70437;BME280;57877;39.750;-104.894;2023-02-17T11:58:00;84022.23;;;-6.43;29.35
70437;BME280;57877;39.750;-104.894;2023-02-17T12:00:16;84027.39;;;-7.06;29.69
70437;BME280;57877;39.750;-104.894;2023-02-17T12:02:49;84023.21;;;-7.00;29.79
70437;BME280;57877;39.750;-104.894;2023-02-17T12:05:14;84024.24;;;-7.01;29.64
70437;BME280;57877;39.750;-104.894;2023-02-17T12:07:36;84021.59;;;-7.00;29.96
70437;BME280;57877;39.750;-104.894;2023-02-17T12:10:02;84023.08;;;-7.17;30.44
70437;BME280;57877;39.750;-104.894;2023-02-17T12:12:25;84022.96;;;-7.36;30.92
70437;BME280;57877;39.750;-104.894;2023-02-17T12:14:55;84020.52;;;-6.88;30.34
70437;BME280;57877;39.750;-104.894;2023-02-17T12:17:15;84021.05;;;-6.95;30.25
70437;BME280;57877;39.750;-104.894;2023-02-17T12:19:43;84019.25;;;-7.90;31.03
70437;BME280;57877;39.750;-104.894;2023-02-17T12:22:11;84020.88;;;-7.16;30.53
70437;BME280;57877;39.750;-104.894;2023-02-17T12:24:35;84015.57;;;-6.71;29.82
70437;BME280;57877;39.750;-104.894;2023-02-17T12:26:54;84015.28;;;-6.67;29.95
70437;BME280;57877;39.750;-104.894;2023-02-17T12:29:25;84014.60;;;-6.72;29.77
70437;BME280;57877;39.750;-104.894;2023-02-17T12:31:52;84016.52;;;-6.88;29.98
70437;BME280;57877;39.750;-104.894;2023-02-17T12:34:14;84015.60;;;-6.81;29.89
70437;BME280;57877;39.750;-104.894;2023-02-17T12:36:35;84012.53;;;-7.05;30.33
70437;BME280;57877;39.750;-104.894;2023-02-17T12:39:00;84013.77;;;-6.79;29.73
70437;BME280;57877;39.750;-104.894;2023-02-17T12:41:25;84012.94;;;-6.66;29.60
70437;BME280;57877;39.750;-104.894;2023-02-17T12:43:50;84013.37;;;-6.71;29.69
70437;BME280;57877;39.750;-104.894;2023-02-17T12:46:15;84007.51;;;-6.37;30.04
70437;BME280;57877;39.750;-104.894;2023-02-17T12:48:48;84007.45;;;-6.94;30.34
70437;BME280;57877;39.750;-104.894;2023-02-17T12:51:06;84004.63;;;-6.22;29.13
70437;BME280;57877;39.750;-104.894;2023-02-17T12:53:39;84010.20;;;-6.40;29.30
70437;BME280;57877;39.750;-104.894;2023-02-17T12:55:57;84018.76;;;-6.80;30.19